createdAt,value
2022-08-11T00:02:14.979Z,4.55
2022-08-11T00:04:56.034Z,4.28
2022-08-11T00:07:56.004Z,4.97
2022-08-11T00:10:37.042Z,4.43
2022-08-11T00:13:25.018Z,3.03
2022-08-11T00:16:06.050Z,6.35
2022-08-11T00:18:57.996Z,3.30
2022-08-11T00:22:04.688Z,5.88
2022-08-11T00:24:58.553Z,4.55
2022-08-11T00:27:50.004Z,3.83
2022-08-11T00:30:46.987Z,8.13
2022-08-11T00:33:44.184Z,6.30
2022-08-11T00:36:46.005Z,4.10
2022-08-11T00:39:29.403Z,4.07
2022-08-11T00:42:47.001Z,4.05
2022-08-11T00:45:53.017Z,3.58
2022-08-11T00:49:02.995Z,4.97
2022-08-11T00:52:33.014Z,7.45
2022-08-11T00:56:06.997Z,5.43
2022-08-11T00:59:34.978Z,7.57
2022-08-11T01:02:44.057Z,5.70
2022-08-11T01:06:07.853Z,5.47
2022-08-11T01:09:22.537Z,5.32
2022-08-11T01:12:36.336Z,6.13
2022-08-11T01:15:55.697Z,5.85
2022-08-11T01:19:11.014Z,5.90
2022-08-11T01:22:20.996Z,8.00
2022-08-11T01:25:35.070Z,7.63
2022-08-11T01:28:42.004Z,6.20
2022-08-11T01:32:00.043Z,10.02
2022-08-11T01:35:24.052Z,4.65
2022-08-11T01:38:38.034Z,9.35
2022-08-11T01:42:07.401Z,6.40
2022-08-11T01:45:31.038Z,6.63
2022-08-11T01:48:42.322Z,5.35
2022-08-11T01:54:28.229Z,6.07
2022-08-11T01:57:20.994Z,10.27
2022-08-11T02:00:20.707Z,5.25
2022-08-11T02:03:12.996Z,6.80
2022-08-11T02:06:50.893Z,6.13
2022-08-11T02:09:53.005Z,4.88
2022-08-11T02:13:05.013Z,7.50
2022-08-11T02:15:51.057Z,4.55
2022-08-11T02:19:05.032Z,7.00
2022-08-11T02:22:24.665Z,8.10
2022-08-11T02:25:14.017Z,5.38
2022-08-11T02:28:09.057Z,6.43
2022-08-11T02:32:24.802Z,6.55
2022-08-11T02:34:43.060Z,5.57
2022-08-11T02:37:39.039Z,6.38
2022-08-11T02:40:31.470Z,6.13
2022-08-11T02:43:34.033Z,6.05
2022-08-11T02:47:13.022Z,6.15
2022-08-11T02:50:22.093Z,6.72
2022-08-11T02:53:25.026Z,7.32
2022-08-11T02:56:23.833Z,8.27
2022-08-11T02:59:56.023Z,4.65
2022-08-11T03:02:57.536Z,4.38
2022-08-11T03:06:18.023Z,6.93
2022-08-11T03:09:47.021Z,7.85
2022-08-11T03:12:55.882Z,6.28
2022-08-11T03:16:43.030Z,4.65
2022-08-11T03:19:28.121Z,5.43
2022-08-11T03:22:38.198Z,11.80
2022-08-11T03:25:51.017Z,7.28
2022-08-11T03:28:43.043Z,6.07
2022-08-11T03:31:31.069Z,8.18
2022-08-11T03:34:28.009Z,6.80
2022-08-11T03:37:57.025Z,4.68
2022-08-11T03:42:01.646Z,8.90
2022-08-11T03:44:50.029Z,8.38
2022-08-11T03:48:06.025Z,8.60
2022-08-11T03:51:17.656Z,7.18
2022-08-11T03:54:30.012Z,8.38
2022-08-11T03:58:13.030Z,8.15
2022-08-11T04:01:25.136Z,6.47
2022-08-11T04:04:48.299Z,8.80
2022-08-11T04:07:53.041Z,5.55
2022-08-11T04:11:07.121Z,6.43
2022-08-11T04:14:36.041Z,7.57
2022-08-11T04:17:32.044Z,5.18
2022-08-11T04:20:30.771Z,6.95
2022-08-11T04:24:37.065Z,9.38
2022-08-11T04:27:07.428Z,7.25
2022-08-11T04:30:26.748Z,7.25
2022-08-11T04:33:47.067Z,5.97
2022-08-11T04:37:20.836Z,6.40
2022-08-11T04:40:41.053Z,7.13
2022-08-11T04:44:05.768Z,5.55
2022-08-11T04:48:04.057Z,6.38
2022-08-11T04:51:24.821Z,6.85
2022-08-11T04:55:16.058Z,8.60
2022-08-11T04:58:53.039Z,7.00
2022-08-11T05:02:02.176Z,7.57
2022-08-11T05:05:17.033Z,5.65
2022-08-11T05:08:09.096Z,11.75
2022-08-11T05:11:27.033Z,10.20
2022-08-11T05:14:44.044Z,6.68
2022-08-11T05:18:01.050Z,7.15
2022-08-11T05:21:17.055Z,8.80
2022-08-11T05:24:33.046Z,9.35
2022-08-11T05:27:35.618Z,6.53
2022-08-11T05:30:41.063Z,10.45
2022-08-11T05:34:05.041Z,7.60
2022-08-11T05:37:23.870Z,8.30
2022-08-11T05:40:25.051Z,6.38
2022-08-11T05:47:07.049Z,7.30
2022-08-11T05:50:16.038Z,9.32
2022-08-11T05:53:21.057Z,10.32
2022-08-11T05:59:04.066Z,6.78
2022-08-11T06:01:54.091Z,9.68
2022-08-11T06:04:48.038Z,8.05
2022-08-11T06:07:48.606Z,8.98
2022-08-11T06:10:37.038Z,9.85
2022-08-11T06:13:18.120Z,15.07
2022-08-11T06:16:07.190Z,6.75
2022-08-11T06:18:55.138Z,8.82
2022-08-11T06:21:35.048Z,9.68
2022-08-11T06:24:23.189Z,7.72
2022-08-11T06:27:12.292Z,8.32
2022-08-11T06:29:55.816Z,8.23
2022-08-11T06:32:48.070Z,9.55
2022-08-11T06:35:46.033Z,7.28
2022-08-11T06:38:45.078Z,7.15
2022-08-11T06:41:54.044Z,5.68
2022-08-11T06:45:17.113Z,5.47
2022-08-11T06:48:07.074Z,8.25
2022-08-11T06:51:05.870Z,7.35
2022-08-11T06:54:04.724Z,6.53
2022-08-11T06:57:28.785Z,5.55
2022-08-11T07:00:32.981Z,6.43
2022-08-11T07:03:20.451Z,6.40
2022-08-11T07:06:29.086Z,7.03
2022-08-11T07:10:17.879Z,5.95
2022-08-11T07:13:44.448Z,5.57
2022-08-11T07:16:44.061Z,7.30
2022-08-11T07:19:54.072Z,7.07
2022-08-11T07:22:57.621Z,5.60
2022-08-11T07:26:06.058Z,5.90
2022-08-11T07:29:05.058Z,5.88
2022-08-11T07:32:00.071Z,6.20
2022-08-11T07:34:54.051Z,4.45
2022-08-11T07:37:42.065Z,4.85
2022-08-11T07:40:28.118Z,6.18
2022-08-11T07:43:16.066Z,4.72
2022-08-11T07:46:21.064Z,6.55
2022-08-11T07:49:22.688Z,4.35
2022-08-11T07:52:28.074Z,5.18
2022-08-11T07:55:51.855Z,5.32
2022-08-11T07:58:52.400Z,5.15
2022-08-11T08:01:59.137Z,3.22
2022-08-11T08:04:58.802Z,4.05
2022-08-11T08:08:04.063Z,5.13
2022-08-11T08:11:04.021Z,4.60
2022-08-11T08:14:11.075Z,5.38
2022-08-11T08:17:17.087Z,6.55
2022-08-11T08:20:04.066Z,4.50
2022-08-11T08:22:48.280Z,6.15
2022-08-11T08:25:41.064Z,4.22
2022-08-11T08:28:34.095Z,5.53
2022-08-11T08:31:22.156Z,6.05
2022-08-11T08:34:04.061Z,5.38
2022-08-11T08:36:49.340Z,5.00
2022-08-11T08:39:40.149Z,5.10
2022-08-11T08:42:33.153Z,5.55
2022-08-11T08:45:18.408Z,4.70
2022-08-11T08:48:07.090Z,5.28
2022-08-11T08:51:19.089Z,6.18
2022-08-11T08:54:12.640Z,5.03
2022-08-11T08:57:00.174Z,4.97
2022-08-11T08:59:51.353Z,5.40
2022-08-11T09:02:34.200Z,4.97
2022-08-11T09:05:34.075Z,6.75
2022-08-11T09:08:26.101Z,6.30
2022-08-11T09:11:26.946Z,4.32
2022-08-11T09:14:15.276Z,5.55
2022-08-11T09:17:03.092Z,6.97
2022-08-11T09:19:44.318Z,4.25
2022-08-11T09:23:29.903Z,5.72
2022-08-11T09:26:19.871Z,5.07
2022-08-11T09:29:06.093Z,3.67
2022-08-11T09:31:54.137Z,7.78
2022-08-11T09:34:35.109Z,4.95
2022-08-11T09:37:55.748Z,5.65
2022-08-11T09:40:37.119Z,3.63
2022-08-11T09:43:43.093Z,7.63
2022-08-11T09:46:28.693Z,3.72
2022-08-11T09:49:18.101Z,3.30
2022-08-11T09:52:05.036Z,4.88
2022-08-11T09:54:52.106Z,4.13
2022-08-11T09:57:51.289Z,5.47
2022-08-11T10:00:50.146Z,3.88
2022-08-11T10:03:40.576Z,4.55
2022-08-11T10:06:54.444Z,6.70
2022-08-11T10:09:50.256Z,4.00
2022-08-11T10:12:47.127Z,4.10
2022-08-11T10:15:38.364Z,4.75
2022-08-11T10:18:41.099Z,5.45
2022-08-11T10:22:06.757Z,5.35
2022-08-11T10:25:08.109Z,3.83
2022-08-11T10:28:28.500Z,5.68
2022-08-11T10:31:24.778Z,5.95
2022-08-11T10:34:19.035Z,3.15
2022-08-11T10:37:05.031Z,4.68
2022-08-11T10:39:53.201Z,3.60
2022-08-11T10:42:57.840Z,3.95
2022-08-11T10:46:06.139Z,4.93
2022-08-11T10:48:46.178Z,3.35
2022-08-11T10:51:53.814Z,4.90
2022-08-11T10:55:00.148Z,6.15
2022-08-11T10:58:04.882Z,4.97
2022-08-11T11:00:52.154Z,3.80
2022-08-11T11:03:36.980Z,4.75
2022-08-11T11:06:42.121Z,3.95
2022-08-11T11:09:32.161Z,4.95
2022-08-11T11:12:50.131Z,4.00
2022-08-11T11:15:53.286Z,6.68
2022-08-11T11:18:47.138Z,3.50
2022-08-11T11:21:42.415Z,12.65
2022-08-11T11:24:59.130Z,3.80
2022-08-11T11:27:52.110Z,4.07
2022-08-11T11:30:42.215Z,4.10
2022-08-11T11:34:06.445Z,4.90
2022-08-11T11:36:56.719Z,4.82
2022-08-11T11:39:43.152Z,3.90
2022-08-11T11:42:24.165Z,4.13
2022-08-11T11:45:22.566Z,4.47
2022-08-11T11:48:05.254Z,4.07
2022-08-11T11:50:53.740Z,4.60
2022-08-11T11:53:36.194Z,3.97
2022-08-11T11:56:31.497Z,5.40
2022-08-11T11:59:34.105Z,3.13
2022-08-11T12:02:23.139Z,4.63
2022-08-11T12:05:12.137Z,5.00
2022-08-11T12:08:17.497Z,6.03
2022-08-11T12:11:22.143Z,5.38
2022-08-11T12:14:12.125Z,3.85
2022-08-11T12:17:01.149Z,3.55
2022-08-11T12:19:43.240Z,4.07
2022-08-11T12:22:53.164Z,3.95
2022-08-11T12:26:25.286Z,4.07
2022-08-11T12:29:01.128Z,4.30
2022-08-11T12:31:49.139Z,3.65
2022-08-11T12:34:31.166Z,4.70
2022-08-11T12:37:20.145Z,2.67
2022-08-11T12:40:43.076Z,2.33
2022-08-11T12:43:56.995Z,5.78
2022-08-11T12:46:47.149Z,4.13
2022-08-11T12:49:47.663Z,3.97
2022-08-11T12:52:40.138Z,5.85
2022-08-11T12:56:03.722Z,5.00
2022-08-11T12:58:57.293Z,4.90
2022-08-11T13:02:03.476Z,3.50
2022-08-11T13:05:02.148Z,3.67
2022-08-11T13:07:51.516Z,4.20
2022-08-11T13:10:50.171Z,3.38
2022-08-11T13:13:52.763Z,3.70
2022-08-11T13:16:59.174Z,3.80
2022-08-11T13:19:49.766Z,3.55
2022-08-11T13:22:38.279Z,4.90
2022-08-11T13:25:28.244Z,4.15
2022-08-11T13:28:09.178Z,3.97
2022-08-11T13:31:09.730Z,3.33
2022-08-11T13:36:52.635Z,3.00
2022-08-11T13:39:35.228Z,4.43
2022-08-11T13:42:24.189Z,4.47
2022-08-11T13:45:06.284Z,5.28
2022-08-11T13:47:53.157Z,4.72
2022-08-11T13:50:53.210Z,4.95
2022-08-11T13:53:50.205Z,4.00
2022-08-11T13:56:31.213Z,3.88
2022-08-11T13:59:23.993Z,4.80
2022-08-11T14:02:22.510Z,4.45
2022-08-11T14:05:16.162Z,5.13
2022-08-11T14:08:31.788Z,5.35
2022-08-11T14:12:22.742Z,3.83
2022-08-11T14:14:41.582Z,4.75
2022-08-11T14:17:47.994Z,4.82
2022-08-11T14:20:52.170Z,4.20
2022-08-11T14:23:55.254Z,3.50
2022-08-11T14:26:45.193Z,3.83
2022-08-11T14:29:28.254Z,4.47
2022-08-11T14:32:18.177Z,3.22
2022-08-11T14:34:59.229Z,6.35
2022-08-11T14:37:47.167Z,3.20
2022-08-11T14:40:45.815Z,3.90
2022-08-11T14:44:12.402Z,3.70
2022-08-11T14:47:23.901Z,3.58
2022-08-11T14:50:14.221Z,6.40
2022-08-11T14:53:02.188Z,4.35
2022-08-11T14:56:09.321Z,4.45
2022-08-11T14:58:50.202Z,4.20
2022-08-11T15:01:49.331Z,3.90
2022-08-11T15:04:37.180Z,3.58
2022-08-11T15:07:29.877Z,5.60
2022-08-11T15:10:15.215Z,4.07
2022-08-11T15:12:56.351Z,4.20
2022-08-11T15:16:05.844Z,3.72
2022-08-11T15:18:46.725Z,4.22
2022-08-11T15:21:51.190Z,3.40
2022-08-11T15:24:40.165Z,5.25
2022-08-11T15:27:47.065Z,3.63
2022-08-11T15:30:53.170Z,4.25
2022-08-11T15:34:00.189Z,3.90
2022-08-11T15:37:07.937Z,4.38
2022-08-11T15:40:31.770Z,4.13
2022-08-11T15:43:48.177Z,3.17
2022-08-11T15:46:37.259Z,4.78
2022-08-11T15:50:10.460Z,4.30
2022-08-11T15:52:55.185Z,4.90
2022-08-11T15:55:37.677Z,3.97
2022-08-11T15:58:45.223Z,3.90
2022-08-11T16:01:52.881Z,5.75
2022-08-11T16:04:36.203Z,4.85
2022-08-11T16:07:27.227Z,3.10
2022-08-11T16:10:18.750Z,4.43
2022-08-11T16:13:05.486Z,4.78
2022-08-11T16:16:19.182Z,6.60
2022-08-11T16:19:10.827Z,3.75
2022-08-11T16:21:51.185Z,4.18
2022-08-11T16:27:05.818Z,3.25
2022-08-11T16:27:33.235Z,4.97
2022-08-11T16:30:15.304Z,4.30
2022-08-11T16:33:47.913Z,6.15
2022-08-11T16:36:25.093Z,3.65
2022-08-11T16:39:13.365Z,4.95
2022-08-11T16:43:04.401Z,5.45
2022-08-11T16:45:47.225Z,8.93
2022-08-11T16:48:33.510Z,4.45
2022-08-11T16:51:27.201Z,4.32
2022-08-11T16:54:15.196Z,4.15
2022-08-11T16:57:18.195Z,4.10
2022-08-11T17:00:08.201Z,9.02
2022-08-11T17:03:12.737Z,4.03
2022-08-11T17:06:24.315Z,2.85
2022-08-11T17:09:32.127Z,4.63
2022-08-11T17:12:33.276Z,5.55
2022-08-11T17:15:42.262Z,4.88
2022-08-11T17:18:40.397Z,4.72
2022-08-11T17:21:40.206Z,4.38
2022-08-11T17:24:22.242Z,4.05
2022-08-11T17:27:14.212Z,4.05
2022-08-11T17:30:09.224Z,8.20
2022-08-11T17:33:17.002Z,30.67
2022-08-11T17:35:56.214Z,28.75
2022-08-11T17:38:38.108Z,35.83
2022-08-11T17:41:45.226Z,56.55
2022-08-11T17:44:52.208Z,42.08
2022-08-11T17:47:52.869Z,23.90
2022-08-11T17:50:40.214Z,24.77
2022-08-11T17:54:16.919Z,32.72
2022-08-11T17:57:07.038Z,23.45
2022-08-11T18:00:08.205Z,17.42
2022-08-11T18:03:13.894Z,13.63
2022-08-11T18:05:55.206Z,9.13
2022-08-11T18:09:11.223Z,16.42
2022-08-11T18:12:12.848Z,15.27
2022-08-11T18:15:22.244Z,11.25
2022-08-11T18:18:34.786Z,9.20
2022-08-11T18:21:33.230Z,10.13
2022-08-11T18:24:40.215Z,10.23
2022-08-11T18:27:48.242Z,6.78
2022-08-11T18:31:03.502Z,9.57
2022-08-11T18:34:09.273Z,6.80
2022-08-11T18:37:24.701Z,7.32
2022-08-11T18:40:40.230Z,4.68
2022-08-11T18:43:42.819Z,6.88
2022-08-11T18:46:49.237Z,5.18
2022-08-11T18:50:02.075Z,5.50
2022-08-11T18:53:05.265Z,5.05
2022-08-11T18:56:11.868Z,5.60
2022-08-11T18:59:13.267Z,7.78
2022-08-11T19:02:26.243Z,5.07
2022-08-11T19:06:32.060Z,5.05
2022-08-11T19:09:31.227Z,6.80
2022-08-11T19:12:37.947Z,4.50
2022-08-11T19:15:38.229Z,4.15
2022-08-11T19:18:40.848Z,3.33
2022-08-11T19:21:48.238Z,5.75
2022-08-11T19:24:49.319Z,3.10
2022-08-11T19:27:58.238Z,4.40
2022-08-11T19:31:06.237Z,4.47
2022-08-11T19:34:12.233Z,4.03
2022-08-11T19:37:23.708Z,5.05
2022-08-11T19:40:34.878Z,5.25
2022-08-11T19:43:41.235Z,6.93
2022-08-11T19:46:43.008Z,3.33
2022-08-11T19:49:49.473Z,4.15
2022-08-11T19:52:48.927Z,6.13
2022-08-11T19:55:54.243Z,4.97
2022-08-11T19:58:53.195Z,3.65
2022-08-11T20:02:12.998Z,2.58
2022-08-11T20:05:13.077Z,3.53
2022-08-11T20:08:21.250Z,6.10
2022-08-11T20:11:21.164Z,3.85
2022-08-11T20:14:28.246Z,5.45
2022-08-11T20:17:28.362Z,4.43
2022-08-11T20:20:35.249Z,7.43
2022-08-11T20:23:36.888Z,3.60
2022-08-11T20:26:42.261Z,6.38
2022-08-11T20:29:44.482Z,4.68
2022-08-11T20:32:50.246Z,3.85
2022-08-11T20:35:50.033Z,5.22
2022-08-11T20:38:58.254Z,2.65
2022-08-11T20:42:04.253Z,4.80
2022-08-11T20:45:05.252Z,5.93
2022-08-11T20:48:14.711Z,3.13
2022-08-11T20:51:21.269Z,11.93
2022-08-11T20:54:43.312Z,5.95
2022-08-11T20:58:00.072Z,5.85
2022-08-11T21:01:13.831Z,5.28
2022-08-11T21:04:30.262Z,6.45
2022-08-11T21:07:36.821Z,4.18
2022-08-11T21:10:39.275Z,6.53
2022-08-11T21:13:53.999Z,6.85
2022-08-11T21:16:59.267Z,6.93
2022-08-11T21:20:07.907Z,7.45
2022-08-11T21:23:23.741Z,8.35
2022-08-11T21:26:34.054Z,4.38
2022-08-11T21:29:34.282Z,7.47
2022-08-11T21:32:42.258Z,5.85
2022-08-11T21:35:45.314Z,6.05
2022-08-11T21:38:52.257Z,5.15
2022-08-11T21:41:51.264Z,5.63
2022-08-11T21:44:57.262Z,5.57
2022-08-11T21:48:01.013Z,5.72
2022-08-11T21:51:06.270Z,4.75
2022-08-11T21:54:12.254Z,4.65
2022-08-11T21:57:13.033Z,7.70
2022-08-11T22:00:25.249Z,4.97
2022-08-11T22:03:25.274Z,4.85
2022-08-11T22:06:51.269Z,7.28
2022-08-11T22:09:50.585Z,8.70
2022-08-11T22:12:56.258Z,3.95
2022-08-11T22:15:56.941Z,6.00
2022-08-11T22:19:02.256Z,7.30
2022-08-11T22:22:09.228Z,4.90
2022-08-11T22:25:16.669Z,6.65
2022-08-11T22:28:24.287Z,8.93
2022-08-11T22:31:32.257Z,5.70
2022-08-11T22:34:52.639Z,6.55
2022-08-11T22:37:59.837Z,6.65
2022-08-11T22:40:59.277Z,5.43
2022-08-11T22:44:00.354Z,7.25
2022-08-11T22:47:06.282Z,5.60
2022-08-11T22:50:09.624Z,5.35
2022-08-11T22:53:15.275Z,7.75
2022-08-11T22:56:22.022Z,4.75
2022-08-11T22:59:32.254Z,6.32
2022-08-11T23:02:40.284Z,4.78
2022-08-11T23:05:40.269Z,7.97
2022-08-11T23:08:45.754Z,6.45
2022-08-11T23:12:07.017Z,4.97
2022-08-11T23:15:11.114Z,4.90
2022-08-11T23:18:10.274Z,7.55
2022-08-11T23:21:16.862Z,4.13
2022-08-11T23:24:16.314Z,6.35
2022-08-11T23:27:23.286Z,5.22
2022-08-11T23:30:25.286Z,6.10
2022-08-11T23:33:32.305Z,8.18
2022-08-11T23:36:34.058Z,7.88
2022-08-11T23:39:48.623Z,5.75
2022-08-11T23:42:53.287Z,7.00
2022-08-11T23:46:05.298Z,5.32
2022-08-11T23:49:05.329Z,4.95
2022-08-11T23:52:12.264Z,5.65
2022-08-11T23:55:11.778Z,6.22
2022-08-11T23:58:16.271Z,4.35
